Time;durP1;ratioP1;P1;durP2;ratioP2;P2;SDS_P1;SDS_P2;PMS_P1;PMS_P2;Temp;Humidity;BMP_temperature;BMP_pressure;BME280_temperature;BME280_humidity;BME280_pressure;Samples;Min_cycle;Max_cycle;Signal;HPM_P1;HPM_P2
2021/05/07 00:04:08;;;;;;;;;;;6.80;99.90;;;;;;10456184;28;19936;-60
2021/05/07 00:09:09;;;;;;;;;;;6.80;99.90;;;;;;10469528;28;19929;-60
2021/05/07 00:14:11;;;;;;;;;;;6.70;99.90;;;;;;10466281;28;19932;-60
2021/05/07 00:19:12;;;;;;;;;;;6.50;99.90;;;;;;10452796;28;20019;-60
2021/05/07 00:24:14;;;;;;;;;;;6.40;99.90;;;;;;10449542;28;19967;-60
2021/05/07 00:29:15;;;;;;;;;;;6.20;99.90;;;;;;10455489;28;20003;-60
2021/05/07 00:34:16;;;;;;;;;;;6.20;99.90;;;;;;10474102;28;20015;-60
2021/05/07 00:39:17;;;;;;;;;;;6.20;99.90;;;;;;10465948;28;19968;-60
2021/05/07 00:44:19;;;;;;;;;;;6.20;99.90;;;;;;10452332;28;19971;-60
2021/05/07 00:49:20;;;;;;;;;;;6.30;99.90;;;;;;10452817;28;20063;-60
2021/05/07 00:54:21;;;;;;;;;;;6.40;99.90;;;;;;10468701;28;19972;-60
2021/05/07 00:59:23;;;;;;;;;;;6.50;99.90;;;;;;10470596;28;20002;-60
2021/05/07 01:04:26;;;;;;;;;;;6.50;99.90;;;;;;10477124;28;19955;-60
2021/05/07 01:09:27;;;;;;;;;;;6.50;99.90;;;;;;10464860;28;19956;-60
2021/05/07 01:14:28;;;;;;;;;;;6.50;99.90;;;;;;10453146;28;20011;-60
2021/05/07 01:19:30;;;;;;;;;;;6.30;99.90;;;;;;10454797;28;20033;-60
2021/05/07 01:24:32;;;;;;;;;;;6.30;99.90;;;;;;10466126;28;19928;-60
2021/05/07 01:29:33;;;;;;;;;;;6.00;99.90;;;;;;10461696;28;20030;-60
2021/05/07 01:34:34;;;;;;;;;;;5.90;99.90;;;;;;10470506;28;19924;-60
2021/05/07 01:39:35;;;;;;;;;;;5.90;99.90;;;;;;10462910;28;20003;-60
2021/05/07 01:44:37;;;;;;;;;;;5.80;99.90;;;;;;10457700;28;19976;-60
2021/05/07 01:49:38;;;;;;;;;;;5.70;99.90;;;;;;10456386;28;19939;-60
2021/05/07 01:54:39;;;;;;;;;;;5.60;99.90;;;;;;10483203;28;20020;-60
2021/05/07 01:59:40;;;;;;;;;;;5.40;99.90;;;;;;10480164;28;19928;-60
2021/05/07 02:04:42;;;;;;;;;;;5.30;99.90;;;;;;10477325;28;19947;-60
2021/05/07 02:09:45;;;;;;;;;;;5.30;99.90;;;;;;10488026;28;20401;-60
2021/05/07 02:14:46;;;;;;;;;;;5.40;99.90;;;;;;10482830;28;19925;-60
2021/05/07 02:19:48;;;;;;;;;;;5.20;99.90;;;;;;10485882;28;20023;-60
2021/05/07 02:24:49;;;;;;;;;;;5.20;99.90;;;;;;10469908;28;19967;-60
2021/05/07 02:29:51;;;;;;;;;;;5.00;99.90;;;;;;10472705;28;19925;-60
2021/05/07 02:34:52;;;;;;;;;;;5.00;99.90;;;;;;10484408;28;19970;-60
2021/05/07 02:39:53;;;;;;;;;;;4.90;99.90;;;;;;10491065;28;19977;-60
2021/05/07 02:44:55;;;;;;;;;;;4.90;99.90;;;;;;10472422;28;19979;-60
2021/05/07 02:49:56;;;;;;;;;;;4.80;99.90;;;;;;10438022;28;19956;-60
2021/05/07 02:54:57;;;;;;;;;;;4.80;99.90;;;;;;10468340;28;19967;-60
2021/05/07 02:59:59;;;;;;;;;;;4.60;99.90;;;;;;10492169;28;20388;-60
2021/05/07 03:05:00;;;;;;;;;;;4.60;99.90;;;;;;10470649;28;19976;-60
2021/05/07 03:10:02;;;;;;;;;;;4.50;99.90;;;;;;10468528;28;20019;-60
2021/05/07 03:15:06;;;;;;;;;;;4.60;99.90;;;;;;10449501;28;19928;-60
2021/05/07 03:20:09;;;;;;;;;;;4.60;99.90;;;;;;10451170;28;19931;-60
2021/05/07 03:25:10;;;;;;;;;;;4.50;99.90;;;;;;10453221;28;19991;-60
2021/05/07 03:30:13;;;;;;;;;;;4.40;99.90;;;;;;10463165;28;20292;-60
2021/05/07 03:35:14;;;;;;;;;;;4.30;99.90;;;;;;10479970;28;19932;-60
2021/05/07 03:40:15;;;;;;;;;;;4.20;99.90;;;;;;10463506;28;20311;-60
2021/05/07 03:45:17;;;;;;;;;;;4.30;99.90;;;;;;10472105;28;19954;-60
2021/05/07 03:50:19;;;;;;;;;;;4.40;99.90;;;;;;10453303;28;19968;-60
2021/05/07 03:55:20;;;;;;;;;;;4.40;99.90;;;;;;10480194;28;19975;-60
2021/05/07 04:00:22;;;;;;;;;;;4.30;99.90;;;;;;10482505;28;20024;-60
2021/05/07 04:05:23;;;;;;;;;;;4.20;99.90;;;;;;10482950;28;19967;-60
2021/05/07 04:10:27;;;;;;;;;;;4.40;99.90;;;;;;10480738;28;19933;-60
2021/05/07 04:15:29;;;;;;;;;;;4.50;99.90;;;;;;10478918;28;20028;-60
2021/05/07 04:20:30;;;;;;;;;;;4.50;99.90;;;;;;10453245;28;20044;-60
2021/05/07 04:25:31;;;;;;;;;;;4.40;99.90;;;;;;10462028;28;20015;-60
2021/05/07 04:30:33;;;;;;;;;;;4.40;99.90;;;;;;10452967;28;20019;-60
2021/05/07 04:35:34;;;;;;;;;;;4.50;99.90;;;;;;10448745;28;19959;-60
2021/05/07 04:40:36;;;;;;;;;;;5.00;99.90;;;;;;10448137;28;20339;-60
2021/05/07 04:45:38;;;;;;;;;;;5.80;99.90;;;;;;10474344;28;19955;-60
2021/05/07 04:50:40;;;;;;;;;;;6.10;99.90;;;;;;10452224;28;19968;-60
2021/05/07 04:55:41;;;;;;;;;;;7.40;99.90;;;;;;10448921;28;19952;-60
2021/05/07 05:00:44;;;;;;;;;;;8.80;99.90;;;;;;10481329;28;19924;-60
2021/05/07 05:05:51;;;;;;;;;;;11.10;99.90;;;;;;10454417;28;19925;-61
2021/05/07 05:10:54;;;;;;;;;;;11.90;99.90;;;;;;10451611;28;19959;-61
2021/05/07 05:15:56;;;;;;;;;;;12.10;99.70;;;;;;10472417;28;19970;-61
2021/05/07 05:20:59;;;;;;;;;;;10.60;99.90;;;;;;10477990;28;20011;-61
2021/05/07 05:26:01;;;;;;;;;;;8.80;99.90;;;;;;10458449;28;19947;-60
2021/05/07 05:31:02;;;;;;;;;;;7.70;99.90;;;;;;10454856;28;19978;-60
2021/05/07 05:36:04;;;;;;;;;;;7.10;99.90;;;;;;10420167;28;20472;-60
2021/05/07 05:41:05;;;;;;;;;;;6.80;99.90;;;;;;10445423;28;20377;-61
2021/05/07 05:46:07;;;;;;;;;;;6.70;99.90;;;;;;10468075;28;20328;-60
2021/05/07 05:51:08;;;;;;;;;;;6.70;99.90;;;;;;10481616;28;19929;-60
2021/05/07 05:56:12;;;;;;;;;;;6.70;99.90;;;;;;10451463;28;20436;-60
2021/05/07 06:01:13;;;;;;;;;;;6.80;99.90;;;;;;10474217;28;20270;-60
2021/05/07 06:06:14;;;;;;;;;;;6.60;99.90;;;;;;10469408;28;19925;-60
2021/05/07 06:11:16;;;;;;;;;;;6.60;99.90;;;;;;10451116;28;19925;-60
2021/05/07 06:16:17;;;;;;;;;;;6.70;99.90;;;;;;10478177;28;19963;-60
2021/05/07 06:21:18;;;;;;;;;;;6.60;99.90;;;;;;10487494;28;19974;-60
2021/05/07 06:26:20;;;;;;;;;;;6.70;99.90;;;;;;10464745;28;19969;-60
2021/05/07 06:31:21;;;;;;;;;;;7.00;99.90;;;;;;10466090;28;20023;-60
2021/05/07 06:36:22;;;;;;;;;;;7.10;99.90;;;;;;10467300;28;19956;-60
2021/05/07 06:41:24;;;;;;;;;;;7.00;99.90;;;;;;10465493;28;19963;-60
2021/05/07 06:46:25;;;;;;;;;;;7.00;99.90;;;;;;10483773;28;19971;-60
2021/05/07 06:51:27;;;;;;;;;;;7.20;99.90;;;;;;10472849;28;19974;-60
2021/05/07 06:56:29;;;;;;;;;;;7.40;99.90;;;;;;10470347;28;20007;-60
2021/05/07 07:01:30;;;;;;;;;;;7.50;99.90;;;;;;10477737;28;20478;-60
2021/05/07 07:06:31;;;;;;;;;;;7.60;99.90;;;;;;10461641;28;20392;-60
2021/05/07 07:11:33;;;;;;;;;;;7.90;99.90;;;;;;10467329;28;19924;-60
2021/05/07 07:16:34;;;;;;;;;;;8.20;99.90;;;;;;10473850;28;20003;-60
2021/05/07 07:21:37;;;;;;;;;;;8.30;99.90;;;;;;10470606;28;19929;-60
2021/05/07 07:26:38;;;;;;;;;;;8.50;99.90;;;;;;10470371;28;19924;-61
2021/05/07 07:31:40;;;;;;;;;;;8.40;99.90;;;;;;10475967;28;20007;-60
2021/05/07 07:36:41;;;;;;;;;;;8.50;99.90;;;;;;10481959;28;19928;-60
2021/05/07 07:41:42;;;;;;;;;;;9.10;99.90;;;;;;10470868;28;20023;-60
2021/05/07 07:46:44;;;;;;;;;;;9.80;99.90;;;;;;10485307;28;19924;-61
2021/05/07 07:51:45;;;;;;;;;;;10.80;99.90;;;;;;10475037;28;20277;-61
2021/05/07 07:56:46;;;;;;;;;;;11.40;91.50;;;;;;10467014;28;19963;-61
2021/05/07 08:01:48;;;;;;;;;;;11.30;88.40;;;;;;10462601;28;20277;-61
2021/05/07 08:06:49;;;;;;;;;;;12.00;88.30;;;;;;10464288;28;19932;-61
2021/05/07 08:11:52;;;;;;;;;;;12.60;82.30;;;;;;10452358;28;19970;-61
2021/05/07 08:16:55;;;;;;;;;;;12.50;80.40;;;;;;10461630;28;20435;-61
2021/05/07 08:21:57;;;;;;;;;;;13.10;72.30;;;;;;10475901;28;19925;-61
2021/05/07 08:26:58;;;;;;;;;;;13.00;69.30;;;;;;10447588;28;19968;-61
2021/05/07 08:32:00;;;;;;;;;;;12.60;70.90;;;;;;10452972;28;20448;-61
2021/05/07 08:37:01;;;;;;;;;;;12.00;71.60;;;;;;10473172;28;19925;-60
2021/05/07 08:42:09;;;;;;;;;;;12.10;71.10;;;;;;10476468;28;19935;-60
2021/05/07 08:47:10;;;;;;;;;;;12.70;67.40;;;;;;10475000;28;19971;-60
2021/05/07 08:52:12;;;;;;;;;;;11.50;70.50;;;;;;10459562;28;19928;-61
2021/05/07 08:57:14;;;;;;;;;;;10.50;76.10;;;;;;10471563;28;20030;-60
2021/05/07 09:02:31;;;;;;;;;;;10.30;78.60;;;;;;10460772;28;19932;-61
2021/05/07 09:07:33;;;;;;;;;;;9.80;80.40;;;;;;10465584;28;20036;-60
2021/05/07 09:12:40;;;;;;;;;;;9.10;92.40;;;;;;10460709;28;19925;-60
2021/05/07 09:17:42;;;;;;;;;;;7.00;99.90;;;;;;10442088;28;20467;-60
2021/05/07 09:22:43;;;;;;;;;;;5.80;99.90;;;;;;10477443;28;19932;-60
2021/05/07 09:27:45;;;;;;;;;;;5.00;99.90;;;;;;10473002;28;19964;-60
2021/05/07 09:32:50;;;;;;;;;;;4.60;99.90;;;;;;10464884;28;19925;-60
2021/05/07 09:38:03;;;;;;;;;;;5.20;99.90;;;;;;10468997;28;19924;-60
2021/05/07 09:43:12;;;;;;;;;;;6.30;99.90;;;;;;10476223;28;19960;-60
2021/05/07 09:48:19;;;;;;;;;;;7.30;99.90;;;;;;10470377;28;19976;-60
2021/05/07 09:53:21;;;;;;;;;;;8.60;99.90;;;;;;10455888;28;19963;-60
2021/05/07 09:58:23;;;;;;;;;;;9.20;99.90;;;;;;10443609;28;20385;-60
2021/05/07 10:03:25;;;;;;;;;;;9.10;99.90;;;;;;10430090;28;19972;-61
2021/05/07 10:08:26;;;;;;;;;;;8.90;99.90;;;;;;10443741;28;20012;-62
2021/05/07 10:13:29;;;;;;;;;;;8.70;99.90;;;;;;10455925;28;19979;-60
2021/05/07 10:18:33;;;;;;;;;;;8.50;99.90;;;;;;10471398;28;19971;-60
2021/05/07 10:23:35;;;;;;;;;;;8.40;99.90;;;;;;10454244;28;20022;-61
2021/05/07 10:28:43;;;;;;;;;;;8.40;99.90;;;;;;10449953;28;20036;-60
2021/05/07 10:34:07;;;;;;;;;;;8.50;99.90;;;;;;10477599;28;19980;-60
2021/05/07 10:39:30;;;;;;;;;;;8.60;99.90;;;;;;10461921;28;19953;-60
2021/05/07 10:44:41;;;;;;;;;;;8.20;99.90;;;;;;10476111;28;19925;-60
2021/05/07 10:49:46;;;;;;;;;;;7.60;99.90;;;;;;10467264;28;20001;-60
2021/05/07 10:54:54;;;;;;;;;;;7.10;99.90;;;;;;10466792;28;20021;-60
2021/05/07 11:00:06;;;;;;;;;;;6.70;99.90;;;;;;10464373;28;19978;-60
2021/05/07 11:05:08;;;;;;;;;;;6.80;99.90;;;;;;10456133;28;20036;-60
2021/05/07 11:10:11;;;;;;;;;;;7.10;99.90;;;;;;10460425;28;19968;-60
2021/05/07 11:15:16;;;;;;;;;;;7.90;99.90;;;;;;10466833;28;19925;-60
2021/05/07 11:20:17;;;;;;;;;;;8.00;99.90;;;;;;10469930;28;20020;-60
2021/05/07 11:25:22;;;;;;;;;;;7.70;99.90;;;;;;10469285;28;19932;-60
2021/05/07 11:30:23;;;;;;;;;;;7.70;99.90;;;;;;10476310;28;19967;-59
2021/05/07 11:35:25;;;;;;;;;;;8.30;99.90;;;;;;10478031;28;20509;-60
2021/05/07 11:40:34;;;;;;;;;;;9.30;99.90;;;;;;10470745;28;19975;-60
2021/05/07 11:45:35;;;;;;;;;;;8.90;99.90;;;;;;10425592;28;19972;-60
2021/05/07 11:50:37;;;;;;;;;;;8.40;99.90;;;;;;10461090;28;19931;-60
2021/05/07 11:55:39;;;;;;;;;;;8.20;99.90;;;;;;10452893;28;20635;-60
2021/05/07 12:00:42;;;;;;;;;;;8.10;99.90;;;;;;10466613;28;20016;-60
2021/05/07 12:05:45;;;;;;;;;;;7.70;99.90;;;;;;10444534;28;19929;-60
2021/05/07 12:10:47;;;;;;;;;;;7.90;99.90;;;;;;10445765;28;19954;-60
2021/05/07 12:15:49;;;;;;;;;;;8.50;99.90;;;;;;10458656;28;19959;-60
2021/05/07 12:20:55;;;;;;;;;;;9.20;99.90;;;;;;10460585;28;20815;-60
2021/05/07 12:25:56;;;;;;;;;;;8.90;99.90;;;;;;10458019;28;20012;-60
2021/05/07 12:30:58;;;;;;;;;;;8.80;99.90;;;;;;10459829;28;19929;-61
2021/05/07 12:35:59;;;;;;;;;;;9.00;99.90;;;;;;10453392;28;20351;-61
2021/05/07 12:41:08;;;;;;;;;;;10.10;99.90;;;;;;10459102;28;19955;-61
2021/05/07 12:46:10;;;;;;;;;;;10.40;99.90;;;;;;10466592;28;20514;-61
2021/05/07 12:51:28;;;;;;;;;;;11.10;99.00;;;;;;10480617;28;20022;-60
2021/05/07 12:56:30;;;;;;;;;;;11.60;89.50;;;;;;10457075;28;19972;-61
2021/05/07 13:01:31;;;;;;;;;;;12.00;86.20;;;;;;10475351;28;19928;-60
2021/05/07 13:06:33;;;;;;;;;;;12.10;80.20;;;;;;10457341;28;19963;-61
2021/05/07 13:11:34;;;;;;;;;;;11.50;69.70;;;;;;10478972;28;19932;-60
2021/05/07 13:16:36;;;;;;;;;;;11.60;72.10;;;;;;10459024;28;20074;-61
2021/05/07 13:21:37;;;;;;;;;;;11.80;71.60;;;;;;10451589;28;19970;-61
2021/05/07 13:26:39;;;;;;;;;;;11.70;69.00;;;;;;10456639;28;20383;-61
2021/05/07 13:31:40;;;;;;;;;;;11.40;65.00;;;;;;10447720;28;20444;-61
2021/05/07 13:36:42;;;;;;;;;;;11.30;63.90;;;;;;10461597;28;19929;-60
2021/05/07 13:41:43;;;;;;;;;;;11.60;63.20;;;;;;10444504;28;20015;-61
2021/05/07 13:46:44;;;;;;;;;;;11.40;63.00;;;;;;10463494;28;20464;-61
2021/05/07 13:51:46;;;;;;;;;;;11.00;61.00;;;;;;10460500;28;19932;-61
2021/05/07 13:56:50;;;;;;;;;;;11.20;63.50;;;;;;10438320;28;19977;-61
2021/05/07 14:01:52;;;;;;;;;;;11.70;60.90;;;;;;10470696;28;19967;-61
2021/05/07 14:06:54;;;;;;;;;;;11.80;57.30;;;;;;10465469;28;19924;-61
2021/05/07 14:11:56;;;;;;;;;;;12.30;58.90;;;;;;10450368;28;19998;-61
2021/05/07 14:16:57;;;;;;;;;;;11.90;58.10;;;;;;10484368;28;19963;-61
2021/05/07 14:21:59;;;;;;;;;;;12.00;58.20;;;;;;10487537;28;20393;-61
2021/05/07 14:27:01;;;;;;;;;;;11.90;58.60;;;;;;10474198;28;19928;-61
2021/05/07 14:32:02;;;;;;;;;;;12.00;58.60;;;;;;10484297;28;20020;-61
2021/05/07 14:37:03;;;;;;;;;;;11.60;56.70;;;;;;10488626;28;19924;-61
2021/05/07 14:42:05;;;;;;;;;;;11.00;58.20;;;;;;10489014;28;19959;-61
2021/05/07 14:47:06;;;;;;;;;;;11.30;57.90;;;;;;10486038;28;20387;-60
2021/05/07 14:52:08;;;;;;;;;;;11.30;58.10;;;;;;10483721;28;19936;-61
2021/05/07 14:57:09;;;;;;;;;;;11.00;58.00;;;;;;10461043;28;20012;-61
2021/05/07 15:02:10;;;;;;;;;;;11.10;58.50;;;;;;10453597;28;19929;-61
2021/05/07 15:07:19;;;;;;;;;;;11.00;57.20;;;;;;10450548;28;20444;-60
2021/05/07 15:12:22;;;;;;;;;;;11.40;58.10;;;;;;10443810;28;19956;-61
2021/05/07 15:17:23;;;;;;;;;;;11.90;57.40;;;;;;10448708;28;19931;-61
2021/05/07 15:22:26;;;;;;;;;;;11.80;55.60;;;;;;10448561;28;19932;-61
2021/05/07 15:27:28;;;;;;;;;;;11.80;54.70;;;;;;10437647;28;19968;-61
2021/05/07 15:32:29;;;;;;;;;;;12.00;54.60;;;;;;10438691;28;20009;-61
2021/05/07 15:37:31;;;;;;;;;;;12.40;53.30;;;;;;10449888;28;19941;-61
2021/05/07 15:42:32;;;;;;;;;;;12.50;52.40;;;;;;10449435;28;20147;-61
2021/05/07 15:47:34;;;;;;;;;;;12.40;52.50;;;;;;10460239;28;19924;-61
2021/05/07 15:52:35;;;;;;;;;;;12.30;53.00;;;;;;10456079;28;19968;-61
2021/05/07 15:57:37;;;;;;;;;;;11.90;52.40;;;;;;10451159;28;20450;-61
2021/05/07 16:02:38;;;;;;;;;;;11.30;53.90;;;;;;10443687;28;19925;-61
2021/05/07 16:07:40;;;;;;;;;;;10.80;53.80;;;;;;10421218;28;19937;-61
2021/05/07 16:12:43;;;;;;;;;;;10.80;56.60;;;;;;10420465;28;20333;-61
2021/05/07 16:17:44;;;;;;;;;;;10.70;53.50;;;;;;10440492;28;20424;-61
2021/05/07 16:22:46;;;;;;;;;;;10.60;55.80;;;;;;10441454;28;19940;-61
2021/05/07 16:27:47;;;;;;;;;;;10.90;55.60;;;;;;10440292;28;19938;-61
2021/05/07 16:32:49;;;;;;;;;;;11.10;54.30;;;;;;10445041;28;19979;-61
2021/05/07 16:37:56;;;;;;;;;;;11.20;54.00;;;;;;10439352;28;19964;-61
2021/05/07 16:42:57;;;;;;;;;;;11.40;52.90;;;;;;10442193;28;20021;-61
2021/05/07 16:48:00;;;;;;;;;;;11.60;53.00;;;;;;10446238;28;20010;-62
2021/05/07 16:53:02;;;;;;;;;;;11.70;52.10;;;;;;10443217;28;19928;-62
2021/05/07 16:58:04;;;;;;;;;;;11.50;52.80;;;;;;10458480;28;19937;-61
2021/05/07 17:03:05;;;;;;;;;;;11.20;53.00;;;;;;10443546;28;19929;-61
2021/05/07 17:08:07;;;;;;;;;;;10.80;51.60;;;;;;10444816;28;20356;-62
2021/05/07 17:13:08;;;;;;;;;;;10.70;51.90;;;;;;10430906;28;20472;-62
2021/05/07 17:18:10;;;;;;;;;;;10.70;53.10;;;;;;10442291;28;20019;-61
2021/05/07 17:23:12;;;;;;;;;;;10.90;52.70;;;;;;10440535;28;19933;-61
2021/05/07 17:28:13;;;;;;;;;;;11.10;52.30;;;;;;10442747;28;19929;-61
2021/05/07 17:33:15;;;;;;;;;;;11.10;52.60;;;;;;10442011;28;19932;-62
2021/05/07 17:38:16;;;;;;;;;;;11.20;52.80;;;;;;10439289;28;20044;-62
2021/05/07 17:43:18;;;;;;;;;;;11.00;53.20;;;;;;10444459;28;19974;-62
2021/05/07 17:48:19;;;;;;;;;;;10.80;53.30;;;;;;10453386;28;20023;-61
2021/05/07 17:53:20;;;;;;;;;;;10.80;54.50;;;;;;10448657;28;20196;-62
2021/05/07 17:58:22;;;;;;;;;;;10.70;53.30;;;;;;10450256;28;20016;-62
2021/05/07 18:03:23;;;;;;;;;;;10.50;52.30;;;;;;10442646;28;19938;-61
2021/05/07 18:08:24;;;;;;;;;;;10.40;55.00;;;;;;10452455;28;19925;-61
2021/05/07 18:13:27;;;;;;;;;;;10.40;55.80;;;;;;10452330;28;19924;-61
2021/05/07 18:18:29;;;;;;;;;;;10.30;57.60;;;;;;10449878;28;19952;-61
2021/05/07 18:23:31;;;;;;;;;;;10.00;57.90;;;;;;10450941;28;19929;-61
2021/05/07 18:28:32;;;;;;;;;;;9.80;60.10;;;;;;10451818;28;19963;-61
2021/05/07 18:33:34;;;;;;;;;;;9.60;61.90;;;;;;10452289;28;20019;-61
2021/05/07 18:38:35;;;;;;;;;;;9.30;63.70;;;;;;10434168;28;20016;-61
2021/05/07 18:43:36;;;;;;;;;;;9.00;67.00;;;;;;10450996;28;19971;-61
2021/05/07 18:48:38;;;;;;;;;;;8.70;70.70;;;;;;10447856;28;19933;-62
2021/05/07 18:53:41;;;;;;;;;;;8.50;75.70;;;;;;10442992;28;20450;-61
2021/05/07 18:58:43;;;;;;;;;;;8.30;78.10;;;;;;10441128;28;19965;-61
2021/05/07 19:03:44;;;;;;;;;;;8.00;90.40;;;;;;10426824;28;19925;-61
2021/05/07 19:08:46;;;;;;;;;;;7.80;95.40;;;;;;10449782;28;20003;-66
2021/05/07 19:13:48;;;;;;;;;;;7.70;96.70;;;;;;10448616;28;20377;-66
2021/05/07 19:18:50;;;;;;;;;;;7.50;99.40;;;;;;10448822;28;19960;-66
2021/05/07 19:23:52;;;;;;;;;;;7.30;99.90;;;;;;10449470;28;19924;-65
2021/05/07 19:28:54;;;;;;;;;;;7.10;99.90;;;;;;10447423;28;20019;-66
2021/05/07 19:33:55;;;;;;;;;;;6.90;99.90;;;;;;10429336;28;20011;-65
2021/05/07 19:38:56;;;;;;;;;;;6.70;99.90;;;;;;10428963;28;20288;-66
2021/05/07 19:43:58;;;;;;;;;;;6.50;99.90;;;;;;10441337;28;19925;-66
2021/05/07 19:48:59;;;;;;;;;;;6.40;99.90;;;;;;10460001;28;19929;-66
2021/05/07 19:54:01;;;;;;;;;;;6.30;99.90;;;;;;10447913;28;20018;-66
2021/05/07 19:59:02;;;;;;;;;;;6.20;99.90;;;;;;10415971;28;20004;-66
2021/05/07 20:04:04;;;;;;;;;;;6.10;99.90;;;;;;10447572;28;19998;-65
2021/05/07 20:09:06;;;;;;;;;;;5.80;99.90;;;;;;10446540;28;19971;-66
2021/05/07 20:14:07;;;;;;;;;;;5.70;99.90;;;;;;10446572;28;20043;-65
2021/05/07 20:19:09;;;;;;;;;;;5.50;99.90;;;;;;10446325;28;19924;-65
2021/05/07 20:24:11;;;;;;;;;;;5.50;99.90;;;;;;10446970;28;20048;-65
2021/05/07 20:29:12;;;;;;;;;;;5.40;99.90;;;;;;10445985;28;19963;-65
2021/05/07 20:34:18;;;;;;;;;;;5.40;99.90;;;;;;10446413;28;19967;-66
2021/05/07 20:39:21;;;;;;;;;;;5.40;99.90;;;;;;10445576;28;20020;-65
2021/05/07 20:44:22;;;;;;;;;;;5.40;99.90;;;;;;10445937;28;20314;-65
2021/05/07 20:49:23;;;;;;;;;;;5.30;99.90;;;;;;10442554;28;20028;-65
2021/05/07 20:54:25;;;;;;;;;;;5.10;99.90;;;;;;10416200;28;20423;-65
2021/05/07 20:59:26;;;;;;;;;;;5.10;99.90;;;;;;10439317;28;20032;-65
2021/05/07 21:04:27;;;;;;;;;;;5.10;99.90;;;;;;10440315;28;19952;-65
2021/05/07 21:09:29;;;;;;;;;;;5.10;99.90;;;;;;10445003;28;19960;-65
2021/05/07 21:14:30;;;;;;;;;;;5.00;99.90;;;;;;10444416;28;20015;-65
2021/05/07 21:19:31;;;;;;;;;;;4.80;99.90;;;;;;10444199;28;20467;-65
2021/05/07 21:24:33;;;;;;;;;;;4.70;99.90;;;;;;10443961;28;19924;-65
2021/05/07 21:29:34;;;;;;;;;;;4.70;99.90;;;;;;10445047;28;19929;-65
2021/05/07 21:34:36;;;;;;;;;;;4.60;99.90;;;;;;10443612;28;20003;-65
2021/05/07 21:39:37;;;;;;;;;;;4.40;99.90;;;;;;10435205;28;19979;-65
2021/05/07 21:44:39;;;;;;;;;;;4.40;99.90;;;;;;10420737;28;20019;-65
2021/05/07 21:49:43;;;;;;;;;;;4.40;99.90;;;;;;10444869;28;20012;-65
2021/05/07 21:54:44;;;;;;;;;;;4.30;99.90;;;;;;10444473;28;20296;-65
2021/05/07 21:59:45;;;;;;;;;;;4.20;99.90;;;;;;10444227;28;20023;-65
2021/05/07 22:04:47;;;;;;;;;;;4.10;99.90;;;;;;10444163;28;19963;-65
2021/05/07 22:09:48;;;;;;;;;;;4.00;99.90;;;;;;10445080;28;20014;-64
2021/05/07 22:14:49;;;;;;;;;;;3.70;99.90;;;;;;10432036;28;19968;-65
2021/05/07 22:19:51;;;;;;;;;;;3.60;99.90;;;;;;10445221;28;19960;-65
2021/05/07 22:24:52;;;;;;;;;;;3.60;99.90;;;;;;10443625;28;20376;-65
2021/05/07 22:29:53;;;;;;;;;;;3.60;99.90;;;;;;10444958;28;19987;-65
2021/05/07 22:34:54;;;;;;;;;;;3.50;99.90;;;;;;10449601;28;20007;-65
2021/05/07 22:39:56;;;;;;;;;;;3.50;99.90;;;;;;10451464;28;19929;-65
2021/05/07 22:44:57;;;;;;;;;;;3.40;99.90;;;;;;10451033;28;20020;-65
2021/05/07 22:49:59;;;;;;;;;;;3.40;99.90;;;;;;10450648;28;20393;-65
2021/05/07 22:55:00;;;;;;;;;;;3.40;99.90;;;;;;10449426;28;19979;-65
2021/05/07 23:00:06;;;;;;;;;;;3.40;99.90;;;;;;10446206;28;20024;-65
2021/05/07 23:05:09;;;;;;;;;;;3.30;99.90;;;;;;10450086;28;20300;-65
2021/05/07 23:10:11;;;;;;;;;;;3.30;99.90;;;;;;10450803;28;19968;-65
2021/05/07 23:15:13;;;;;;;;;;;3.30;99.90;;;;;;10448693;28;20435;-65
2021/05/07 23:20:16;;;;;;;;;;;3.20;99.90;;;;;;10450390;28;20016;-65
2021/05/07 23:25:17;;;;;;;;;;;3.10;99.90;;;;;;10449237;28;19928;-65
2021/05/07 23:30:19;;;;;;;;;;;3.10;99.90;;;;;;10449812;28;20015;-65
2021/05/07 23:35:20;;;;;;;;;;;3.00;99.90;;;;;;10448523;28;20037;-65
2021/05/07 23:40:21;;;;;;;;;;;3.00;99.90;;;;;;10448731;28;20373;-65
2021/05/07 23:45:23;;;;;;;;;;;3.10;99.90;;;;;;10447347;28;19929;-65
2021/05/07 23:50:24;;;;;;;;;;;3.10;99.90;;;;;;10449123;28;19929;-64
2021/05/07 23:55:25;;;;;;;;;;;3.20;99.90;;;;;;10448048;28;19972;-65
